Crane, MT (59217)

11:40 PM MST on February 26, 2015 (GMT -0700)
Sidney-Richland Municipal | Change Station
CLOSE
Current Station
Airport
Location: Sidney-Richland,
Elevation: 1985 ft
Nearby Weather Stations
Active Advisory: Wind Chill Advisory

Elev 1985 ft 47.71 °N, 104.19 °W | Updated 5 minutes ago

Clear
Clear
0 °F
Feels Like 0 °F
N
0
Wind Variable Wind from North

Today
High -- | Low -- °F
--% Chance of Precip.
Yesterday
High -- | Low -- °F
Precip. -- in
6:43 AM 5:36 PM
Waxing Gibbous, 66% visible
Pressure 30.41 in
Visibility 10.0 miles
Clouds Clear
Dew Point -15 °F
Humidity 51%
Rainfall 0.00 in
Snow Depth Not available.
UV 0 out of 12
Pollen .10 out of 12
Air Quality Not available.
Flu Activity Not available.
METAR KSDY 270635Z AUTO 00000KT 10SM CLR M18/M26 A3041 RMK AO1

More Conditions Fewer Conditions

Pressure 30.41 in
Visibility 10.0 miles
Clouds Clear
Dew Point -15 °F
Humidity 51%
Rainfall 0.00 in
Snow Depth Not available.
UV 0 out of 12
Pollen .10 out of 12
Air Quality Not available.
Flu Activity Not available.
METAR KSDY 270635Z AUTO 00000KT 10SM CLR M18/M26 A3041 RMK AO1

More Conditions Fewer Conditions

10-Day Weather Forecast

Almanac

Astronomy

Feb. 26, 2015 Rise Set
Actual Time
Civil Twilight
Nautical Twilight
Astronomical Twilight
Moon
Length of Visible Light
Length of Day
Tomorrow will be .
, % of the Moon is Illuminated

Today's Extremes

State Highs State Lows

Community

WunderPhotos

Upload Photos

1,800,646 photos uploaded!

WunderBlogs® & News

Nearby

Air Quality

  Air Quality AQ Index Pollutant
Not available.

Snow Depth

Station Depth Elevation

Earthquake Activity

City Distance Mag. Time & Date
Minimum magnitude displayed is 2.5.

Coastal Water Temperatures

Place Temperature

Nearby Weather Stations

Wind Chill Advisory
Statement as of 8:08 PM MST on February 26, 2015

... Wind Chill Advisory in effect from 11 PM this evening to 9 am
MST Friday...

The National Weather Service in Glasgow has issued a Wind Chill
Advisory... which is in effect from 11 PM this evening to 9 am MST
Friday.

* Timing... through this morning.

* Wind chill values... 20 to 30 below.

* Main impact... frostbite can occur in less than 30 minutes.

Precautionary/preparedness actions...

Try to dress adequately. Be sure to wear layered light weight and
wind proof clothing... and wear a hat and mittens for protection
from the dangers of frostbite.